Time;durP1;ratioP1;P1;durP2;ratioP2;P2;SDS_P1;SDS_P2;PMS_P1;PMS_P2;Temp;Humidity;BMP_temperature;BMP_pressure;BME280_temperature;BME280_humidity;BME280_pressure;Samples;Min_cycle;Max_cycle;Signal;HPM_P1;HPM_P2
2022/09/06 00:06:28;;;;;;;0.10;0.10;;;;;;;18.60;65.18;101067.91;18434799;32;20163;-56
2022/09/06 00:16:32;;;;;;;0.90;0.52;;;;;;;18.78;65.80;101070.97;18435841;32;20148;-56
2022/09/06 00:26:36;;;;;;;0.98;0.95;;;;;;;19.02;64.99;101060.69;18434640;32;20146;-56
2022/09/06 00:36:39;;;;;;;0.65;0.30;;;;;;;19.04;65.21;101062.41;18434161;32;20115;-55
2022/09/06 00:46:46;;;;;;;0.20;0.20;;;;;;;19.17;65.38;101065.59;18434099;32;20145;-56
2022/09/06 00:56:50;;;;;;;0.10;0.10;;;;;;;19.30;64.54;101063.44;18433845;32;20137;-56
2022/09/06 01:07:00;;;;;;;0.30;0.30;;;;;;;19.34;64.40;101057.16;18418575;32;20101;-56
2022/09/06 01:17:09;;;;;;;0.28;0.25;;;;;;;19.23;64.63;101069.84;18433112;32;20085;-56
2022/09/06 01:27:42;;;;;;;0.50;0.32;;;;;;;19.18;64.49;101055.84;18433932;32;20440;-56
2022/09/06 01:37:46;;;;;;;0.52;0.30;;;;;;;19.24;64.20;101060.97;18432638;32;20423;-56
2022/09/06 01:47:59;;;;;;;0.25;0.25;;;;;;;18.90;65.05;101048.62;18432269;32;20437;-56
2022/09/06 01:58:25;;;;;;;0.32;0.32;;;;;;;18.82;65.14;101062.06;18431999;32;20384;-55
2022/09/06 02:08:32;;;;;;;0.10;0.10;;;;;;;18.70;65.72;101056.19;18429852;32;20390;-56
2022/09/06 02:18:40;;;;;;;0.22;0.22;;;;;;;18.74;65.02;101064.03;18430643;32;20089;-56
2022/09/06 02:28:45;;;;;;;0.37;0.28;;;;;;;18.63;65.87;101049.31;18430559;32;20097;-55
2022/09/06 02:38:48;;;;;;;0.20;0.20;;;;;;;18.55;66.25;101046.87;18430023;32;20105;-55
2022/09/06 02:48:52;;;;;;;0.30;0.30;;;;;;;18.64;65.65;101047.53;18430754;32;20100;-55
2022/09/06 02:58:56;;;;;;;0.20;0.20;;;;;;;18.54;65.54;101037.22;18429558;32;20182;-55
2022/09/06 03:09:00;;;;;;;1.85;0.70;;;;;;;18.42;65.35;101040.16;18428920;32;20451;-56
2022/09/06 03:19:04;;;;;;;1.75;0.75;;;;;;;18.25;65.96;101033.50;18427876;32;20463;-55
2022/09/06 03:29:08;;;;;;;0.30;0.30;;;;;;;18.25;65.59;101033.50;18434715;32;20141;-56
2022/09/06 03:39:11;;;;;;;0.10;0.10;;;;;;;18.14;65.94;101039.06;18435997;32;20119;-56
2022/09/06 03:49:20;;;;;;;0.30;0.30;;;;;;;17.98;66.54;101043.81;18435636;32;20195;-55
2022/09/06 03:59:23;;;;;;;2.17;0.45;;;;;;;18.07;66.38;101055.06;18434998;32;20097;-55
2022/09/06 04:09:27;;;;;;;0.30;0.30;;;;;;;18.07;66.53;101052.41;18435301;32;20133;-56
2022/09/06 04:19:31;;;;;;;0.40;0.20;;;;;;;18.14;66.44;101048.75;18434952;32;20763;-56
2022/09/06 04:29:35;;;;;;;0.35;0.35;;;;;;;18.15;65.92;101054.00;18419976;32;20120;-55
2022/09/06 04:39:38;;;;;;;0.40;0.30;;;;;;;18.02;66.08;101057.78;18433092;32;20147;-55
2022/09/06 04:49:43;;;;;;;0.98;0.50;;;;;;;18.15;65.82;101048.72;18419911;32;20101;-55
2022/09/06 04:59:46;;;;;;;0.20;0.20;;;;;;;18.15;66.15;101040.78;18433693;32;20186;-56
2022/09/06 05:09:51;;;;;;;0.85;0.85;;;;;;;18.27;66.21;101033.47;18445275;32;20113;-56
2022/09/06 05:19:54;;;;;;;0.10;0.10;;;;;;;18.37;65.23;101034.13;18490802;32;20119;-56
2022/09/06 05:29:59;;;;;;;0.37;0.30;;;;;;;18.48;65.50;101044.41;18494156;32;20159;-56
2022/09/06 05:40:02;;;;;;;0.30;0.30;;;;;;;18.92;65.08;101036.22;18491545;32;20088;-56
2022/09/06 05:50:08;;;;;;;0.93;0.47;;;;;;;20.19;61.56;101039.63;18426329;32;20147;-56
2022/09/06 06:00:13;;;;;;;0.20;0.20;;;;;;;22.14;52.85;101046.84;18426217;32;20085;-56
2022/09/06 06:10:17;;;;;;;0.95;0.52;;;;;;;23.13;47.85;101039.16;18421876;32;20366;-56
2022/09/06 06:20:21;;;;;;;0.10;0.10;;;;;;;22.67;49.98;101042.03;18382433;32;20104;-56
2022/09/06 06:30:25;;;;;;;0.20;0.17;;;;;;;22.40;48.20;101043.13;18364096;32;20158;-56
2022/09/06 06:40:29;;;;;;;0.10;0.10;;;;;;;24.07;43.55;101028.62;18362709;32;20151;-56
2022/09/06 06:50:34;;;;;;;0.10;0.10;;;;;;;24.52;38.20;101037.06;18475439;32;20119;-56
2022/09/06 07:00:37;;;;;;;0.10;0.10;;;;;;;25.61;37.20;101042.09;18466717;32;20118;-56
2022/09/06 07:10:41;;;;;;;0.20;0.20;;;;;;;26.63;37.95;101045.22;18494222;32;20119;-56
2022/09/06 07:20:45;;;;;;;1.00;0.80;;;;;;;26.41;35.57;101043.84;18491337;32;20108;-56
2022/09/06 07:31:09;;;;;;;0.10;0.10;;;;;;;25.99;34.77;101053.34;18412400;32;20137;-56
2022/09/06 07:41:33;;;;;;;0.10;0.10;;;;;;;24.33;36.21;101061.16;18468304;32;20085;-56
2022/09/06 07:51:37;;;;;;;0.00;0.00;;;;;;;25.04;37.42;101046.03;18455450;32;20100;-56
2022/09/06 08:01:41;;;;;;;0.10;0.10;;;;;;;25.17;36.65;101046.19;18476772;32;20103;-56
2022/09/06 08:11:47;;;;;;;0.00;0.00;;;;;;;25.93;35.21;101045.72;18492260;32;20085;-56
2022/09/06 08:21:50;;;;;;;0.98;0.30;;;;;;;24.63;37.29;101051.66;18488379;32;20104;-56
2022/09/06 08:31:55;;;;;;;0.28;0.20;;;;;;;25.46;36.90;101042.91;18383794;32;20339;-56
2022/09/06 08:42:01;;;;;;;0.85;0.73;;;;;;;25.62;35.72;101033.13;18442943;32;20456;-56
2022/09/06 08:52:26;;;;;;;0.20;0.17;;;;;;;25.84;36.89;101023.87;18421375;32;20105;-57
2022/09/06 09:02:42;;;;;;;0.40;0.40;;;;;;;25.54;37.01;101019.31;18470733;32;20484;-56
2022/09/06 09:12:48;;;;;;;0.10;0.10;;;;;;;25.40;37.10;101016.50;18436251;32;20107;-57
2022/09/06 09:22:51;;;;;;;1.08;0.50;;;;;;;25.75;36.74;101014.59;18412449;32;20116;-56
2022/09/06 09:32:56;;;;;;;0.80;0.52;;;;;;;26.94;35.47;100997.88;18392034;32;20127;-56
2022/09/06 09:43:20;;;;;;;0.05;0.05;;;;;;;26.68;34.78;100988.72;18382079;32;20504;-56
2022/09/06 09:53:25;;;;;;;1.40;0.57;;;;;;;26.48;35.61;100968.53;18424415;32;20103;-57
2022/09/06 10:03:29;;;;;;;0.10;0.10;;;;;;;27.59;33.00;100952.72;18388261;32;20097;-56
2022/09/06 10:13:34;;;;;;;0.10;0.10;;;;;;;27.46;33.42;100944.59;18472934;32;20104;-57
2022/09/06 10:23:59;;;;;;;0.13;0.13;;;;;;;27.62;33.75;100928.37;18439838;32;20124;-58
2022/09/06 10:34:51;;;;;;;0.00;0.00;;;;;;;27.78;34.83;100916.62;18387657;32;20108;-58
2022/09/06 10:45:07;;;;;;;0.90;0.20;;;;;;;29.21;32.24;100902.28;18401048;32;20115;-58
2022/09/06 10:55:14;;;;;;;2.53;0.35;;;;;;;29.59;32.42;100896.84;18393719;32;20405;-57
2022/09/06 11:05:21;;;;;;;0.10;0.00;;;;;;;27.95;34.36;100896.72;18405180;32;20160;-58
2022/09/06 11:15:46;;;;;;;0.10;0.10;;;;;;;29.10;33.45;100888.75;18462123;32;20350;-58
2022/09/06 11:26:09;;;;;;;0.50;0.17;;;;;;;29.03;35.37;100890.19;18408421;32;20097;-57
2022/09/06 11:36:23;;;;;;;0.15;0.15;;;;;;;29.02;33.75;100864.25;18409428;32;20093;-58
2022/09/06 11:46:58;;;;;;;0.00;0.00;;;;;;;29.13;35.41;100853.59;18417254;32;20115;-58
2022/09/06 11:57:11;;;;;;;0.10;0.10;;;;;;;28.48;36.20;100850.19;18431878;32;20132;-58
2022/09/06 12:07:14;;;;;;;0.15;0.05;;;;;;;29.15;35.64;100821.22;18432075;32;20413;-58
2022/09/06 12:17:20;;;;;;;0.75;0.20;;;;;;;29.51;35.55;100815.91;18452428;32;20121;-57
2022/09/06 12:27:25;;;;;;;0.40;0.20;;;;;;;30.21;32.93;100805.16;18400379;32;20088;-58
2022/09/06 12:37:38;;;;;;;0.10;0.10;;;;;;;29.81;33.81;100782.25;18447213;32;20088;-57
2022/09/06 12:47:42;;;;;;;0.00;0.00;;;;;;;30.36;31.81;100763.56;18495739;32;20357;-57
2022/09/06 12:57:51;;;;;;;0.32;0.30;;;;;;;29.65;32.75;100758.38;18459852;32;20477;-58
2022/09/06 13:07:56;;;;;;;0.13;0.13;;;;;;;30.90;31.78;100736.78;18391946;32;20114;-57
2022/09/06 13:18:25;;;;;;;0.03;0.00;;;;;;;30.59;31.00;100702.44;18442451;32;20358;-58
2022/09/06 13:28:31;;;;;;;0.47;0.40;;;;;;;30.25;31.99;100693.59;18394935;32;20129;-58
2022/09/06 13:38:41;;;;;;;0.00;0.00;;;;;;;30.19;31.27;100697.63;18379710;32;20097;-58
2022/09/06 13:48:44;;;;;;;0.10;0.10;;;;;;;30.57;31.38;100687.38;18419408;32;20107;-58
2022/09/06 13:58:49;;;;;;;0.15;0.10;;;;;;;31.63;29.76;100676.72;18462603;32;20092;-58
2022/09/06 14:08:52;;;;;;;0.00;0.00;;;;;;;31.42;28.73;100677.59;18430070;32;20100;-58
2022/09/06 14:19:11;;;;;;;0.10;0.10;;;;;;;30.93;30.70;100662.91;18414400;32;20143;-58
2022/09/06 14:29:14;;;;;;;0.30;0.28;;;;;;;30.66;31.65;100658.88;18430994;32;20684;-58
2022/09/06 14:39:19;;;;;;;0.00;0.00;;;;;;;30.15;31.94;100662.03;18417092;32;20499;-58
2022/09/06 14:49:22;;;;;;;0.20;0.20;;;;;;;29.98;32.23;100647.22;18407085;32;20342;-58
2022/09/06 14:59:27;;;;;;;0.00;0.00;;;;;;;29.79;33.06;100657.75;18389583;32;20428;-58
2022/09/06 15:09:30;;;;;;;1.08;0.68;;;;;;;29.42;35.38;100665.03;18361310;32;20486;-57
2022/09/06 15:19:36;;;;;;;0.32;0.32;;;;;;;29.35;35.56;100693.38;18358395;32;20183;-57
2022/09/06 15:29:41;;;;;;;0.52;0.52;;;;;;;27.90;40.04;100695.84;18371481;32;20073;-57
2022/09/06 15:39:45;;;;;;;0.10;0.10;;;;;;;26.86;42.95;100692.16;18372010;32;20754;-57
2022/09/06 15:49:49;;;;;;;0.30;0.30;;;;;;;26.09;45.68;100701.50;18357536;32;20101;-57
2022/09/06 15:59:54;;;;;;;0.17;0.10;;;;;;;25.95;46.23;100714.84;18357115;32;20097;-57
2022/09/06 16:09:58;;;;;;;0.65;0.28;;;;;;;24.98;50.38;100715.19;18371176;32;20093;-57
2022/09/06 16:20:03;;;;;;;0.05;0.03;;;;;;;25.19;51.21;100720.22;18368299;32;20167;-58
2022/09/06 16:30:08;;;;;;;0.85;0.47;;;;;;;24.97;51.89;100732.19;18366581;32;20125;-57
2022/09/06 16:40:14;;;;;;;0.10;0.10;;;;;;;24.85;52.76;100733.72;18354022;32;20389;-58
2022/09/06 16:50:17;;;;;;;0.08;0.08;;;;;;;24.63;54.01;100736.72;18389310;32;20416;-58
2022/09/06 17:00:22;;;;;;;0.30;0.30;;;;;;;24.61;55.26;100725.28;18423597;32;20089;-57
2022/09/06 17:10:26;;;;;;;0.47;0.20;;;;;;;24.49;56.63;100710.81;18431158;32;20089;-58
2022/09/06 17:20:31;;;;;;;0.10;0.10;;;;;;;24.01;57.13;100694.75;18416468;32;20452;-57
2022/09/06 17:30:38;;;;;;;0.00;0.00;;;;;;;24.17;57.32;100716.97;18415596;32;20111;-57
2022/09/06 17:40:43;;;;;;;1.27;0.32;;;;;;;24.11;57.28;100709.34;18429454;32;20366;-57
2022/09/06 17:50:46;;;;;;;0.70;0.20;;;;;;;23.59;61.12;100735.09;18414817;32;20139;-57
2022/09/06 18:00:51;;;;;;;1.35;0.40;;;;;;;23.42;62.14;100728.84;18415936;32;20392;-58
2022/09/06 18:10:54;;;;;;;0.30;0.30;;;;;;;23.23;62.85;100728.00;18413820;32;20117;-58
2022/09/06 18:20:59;;;;;;;0.08;0.08;;;;;;;22.90;64.58;100748.25;18428177;32;20097;-58
2022/09/06 18:31:05;;;;;;;0.50;0.37;;;;;;;22.92;65.07;100750.84;18413263;32;20109;-57
2022/09/06 18:41:58;;;;;;;0.00;0.00;;;;;;;22.95;65.52;100759.53;18427320;32;20120;-57
2022/09/06 18:51:36;;;;;;;0.22;0.20;;;;;;;22.91;65.12;100751.78;18426634;32;20104;-57
2022/09/06 19:01:43;;;;;;;0.30;0.20;;;;;;;22.75;65.24;100749.84;18434266;32;20089;-57
2022/09/06 19:11:50;;;;;;;0.10;0.05;;;;;;;22.41;66.67;100757.59;18433787;32;20108;-58
2022/09/06 19:21:54;;;;;;;0.43;0.10;;;;;;;22.35;67.01;100762.34;18419047;32;20108;-58
2022/09/06 19:31:58;;;;;;;0.57;0.57;;;;;;;22.37;66.68;100756.03;18418927;32;20100;-57
2022/09/06 19:42:03;;;;;;;0.28;0.28;;;;;;;22.24;66.31;100754.84;18433015;32;20098;-57
2022/09/06 19:52:08;;;;;;;0.50;0.40;;;;;;;22.14;66.31;100757.06;18418675;32;20481;-57
2022/09/06 20:02:13;;;;;;;0.30;0.30;;;;;;;21.88;67.69;100759.09;18418253;32;20110;-57
2022/09/06 20:12:16;;;;;;;0.30;0.30;;;;;;;21.92;66.83;100755.37;18416801;32;20105;-57
2022/09/06 20:22:21;;;;;;;0.47;0.47;;;;;;;21.75;66.94;100751.66;18431442;32;20162;-57
2022/09/06 20:32:24;;;;;;;0.20;0.20;;;;;;;21.52;67.26;100754.41;18387338;32;20120;-57
2022/09/06 20:42:29;;;;;;;0.43;0.28;;;;;;;21.47;66.83;100749.28;18398002;32;20093;-57
2022/09/06 20:52:32;;;;;;;0.20;0.20;;;;;;;21.36;66.86;100757.72;18383347;32;20120;-57
2022/09/06 21:02:37;;;;;;;0.40;0.40;;;;;;;21.29;66.92;100748.28;18381050;32;20452;-57
2022/09/06 21:12:40;;;;;;;1.17;0.40;;;;;;;21.20;66.69;100733.62;18379783;32;20750;-57
2022/09/06 21:22:45;;;;;;;0.32;0.32;;;;;;;20.99;66.86;100728.25;18365508;32;20465;-57
2022/09/06 21:32:48;;;;;;;0.35;0.35;;;;;;;20.75;67.40;100746.84;18386045;32;20097;-58
2022/09/06 21:42:53;;;;;;;0.30;0.30;;;;;;;20.65;66.94;100743.69;18394689;32;20120;-58
2022/09/06 21:52:56;;;;;;;0.25;0.25;;;;;;;20.52;67.03;100745.09;18393772;32;20109;-57
2022/09/06 22:03:01;;;;;;;0.30;0.28;;;;;;;20.43;66.94;100735.69;18413718;32;20089;-57
2022/09/06 22:13:05;;;;;;;0.20;0.20;;;;;;;20.23;67.36;100729.34;18364271;32;20099;-57
2022/09/06 22:23:09;;;;;;;0.35;0.35;;;;;;;20.14;67.02;100720.91;18364377;32;20469;-57
2022/09/06 22:33:13;;;;;;;0.20;0.20;;;;;;;19.97;67.33;100732.97;18357632;32;152494;-57
2022/09/06 22:43:17;;;;;;;1.85;1.35;;;;;;;19.90;67.46;100720.84;18363173;32;20166;-57
2022/09/06 22:53:21;;;;;;;1.67;0.75;;;;;;;19.76;67.31;100718.69;18362887;32;20128;-58
2022/09/06 23:03:25;;;;;;;0.60;0.40;;;;;;;19.47;67.92;100709.97;18362363;32;20366;-57
2022/09/06 23:13:29;;;;;;;0.32;0.32;;;;;;;19.59;67.38;100700.75;18360990;32;20500;-57
2022/09/06 23:23:33;;;;;;;0.30;0.30;;;;;;;19.36;67.67;100708.56;18361019;32;20120;-57
2022/09/06 23:33:37;;;;;;;0.32;0.32;;;;;;;19.34;67.70;100717.47;18360017;32;20100;-57
2022/09/06 23:43:42;;;;;;;0.68;0.52;;;;;;;19.02;68.61;100714.13;18364927;32;20097;-57
2022/09/06 23:53:46;;;;;;;0.37;0.37;;;;;;;18.79;68.97;100703.34;18369825;32;20090;-57
